Time,TemperatureF,DewpointF,PressureIn,WindDirection,WindDirectionDegrees,WindSpeedMPH,WindSpeedGustMPH,Humidity,HourlyPrecipIn,Conditions,Clouds,dailyrainin,SolarRadiationWatts/m^2,SoftwareType,DateUTC
2015-07-05 00:02:00,66.7,64.6,29.13,NNE,30,0.0,0.0,93,0.00,,,0.00,0.0,meteohub,2015-07-05 04:02:00,
2015-07-05 00:07:00,66.7,64.6,29.13,NNE,30,0.0,0.0,93,0.00,,,0.00,0.0,meteohub,2015-07-05 04:07:00,
2015-07-05 00:12:00,66.7,64.6,29.13,NNE,30,0.0,0.0,93,0.00,,,0.00,0.0,meteohub,2015-07-05 04:12:00,
2015-07-05 00:17:00,66.7,64.6,29.13,NNE,30,0.0,0.0,93,0.00,,,0.00,0.0,meteohub,2015-07-05 04:17:00,
2015-07-05 00:22:00,66.7,64.6,29.13,NNE,30,0.0,0.0,93,0.00,,,0.00,0.0,meteohub,2015-07-05 04:22:00,
2015-07-05 00:27:00,66.7,64.6,29.13,NNE,30,0.0,0.0,93,0.00,,,0.00,0.0,meteohub,2015-07-05 04:27:00,
2015-07-05 00:32:00,66.6,64.4,29.13,NNE,30,0.0,0.0,93,0.00,,,0.00,0.0,meteohub,2015-07-05 04:32:00,
2015-07-05 00:37:00,66.7,64.6,29.13,NNE,30,0.0,0.0,93,0.00,,,0.00,0.0,meteohub,2015-07-05 04:37:00,
2015-07-05 00:42:00,66.6,64.4,29.13,NNE,30,0.0,0.0,93,0.00,,,0.00,0.0,meteohub,2015-07-05 04:42:00,
2015-07-05 00:47:00,66.7,64.6,29.13,NNE,30,0.0,0.0,93,0.00,,,0.00,0.0,meteohub,2015-07-05 04:47:00,
2015-07-05 00:52:00,66.6,64.4,29.13,NNE,30,0.0,0.0,93,0.00,,,0.00,0.0,meteohub,2015-07-05 04:52:00,
2015-07-05 00:57:00,66.6,64.4,29.13,NNE,30,0.0,0.0,93,0.00,,,0.00,0.0,meteohub,2015-07-05 04:57:00,
2015-07-05 01:02:00,66.6,64.4,29.14,NNE,30,0.0,0.0,93,0.00,,,0.00,0.0,meteohub,2015-07-05 05:02:00,
2015-07-05 01:07:00,66.6,64.4,29.14,NNE,30,0.0,0.0,93,0.00,,,0.00,0.0,meteohub,2015-07-05 05:07:00,
2015-07-05 01:12:00,66.6,64.4,29.14,NNE,30,0.0,0.0,93,0.00,,,0.00,0.0,meteohub,2015-07-05 05:12:00,
2015-07-05 01:17:00,66.6,64.4,29.14,NNE,30,0.0,0.0,93,0.00,,,0.00,0.0,meteohub,2015-07-05 05:17:00,
2015-07-05 01:22:00,66.6,64.4,29.15,NNE,30,0.0,0.0,93,0.00,,,0.00,0.0,meteohub,2015-07-05 05:22:00,
2015-07-05 01:27:00,66.6,64.4,29.14,NNE,30,0.0,0.0,93,0.00,,,0.00,0.0,meteohub,2015-07-05 05:27:00,
2015-07-05 01:31:00,66.6,64.4,29.15,NNE,30,0.0,0.0,93,0.00,,,0.00,0.0,meteohub,2015-07-05 05:31:00,
2015-07-05 01:37:00,66.6,64.4,29.14,NNE,30,0.0,0.0,93,0.00,,,0.00,0.0,meteohub,2015-07-05 05:37:00,
2015-07-05 01:42:00,66.6,64.4,29.14,NNE,30,0.0,0.0,93,0.00,,,0.00,0.0,meteohub,2015-07-05 05:42:00,
2015-07-05 01:47:00,66.6,64.4,29.14,NNE,30,0.0,0.0,93,0.00,,,0.00,0.0,meteohub,2015-07-05 05:47:00,
2015-07-05 01:52:00,66.6,64.4,29.14,NNE,30,0.0,0.0,93,0.00,,,0.00,0.0,meteohub,2015-07-05 05:52:00,
2015-07-05 01:57:00,66.6,64.4,29.14,NNE,30,0.0,0.0,93,0.00,,,0.00,0.0,meteohub,2015-07-05 05:57:00,
2015-07-05 02:02:00,66.6,64.4,29.15,NNE,30,0.0,0.0,93,0.00,,,0.00,0.0,meteohub,2015-07-05 06:02:00,
2015-07-05 02:07:00,66.4,64.2,29.14,NNE,30,0.0,0.0,93,0.00,,,0.00,0.0,meteohub,2015-07-05 06:07:00,
2015-07-05 02:12:00,66.4,64.2,29.14,NNE,30,0.0,0.0,93,0.00,,,0.00,0.0,meteohub,2015-07-05 06:12:00,
2015-07-05 02:17:00,66.4,64.2,29.14,NNE,30,0.0,0.0,93,0.00,,,0.00,0.0,meteohub,2015-07-05 06:17:00,
2015-07-05 02:22:00,66.4,64.2,29.14,NNE,30,0.0,0.0,93,0.00,,,0.00,0.0,meteohub,2015-07-05 06:22:00,
2015-07-05 02:27:00,66.4,64.2,29.14,NNE,30,0.0,0.0,93,0.00,,,0.00,0.0,meteohub,2015-07-05 06:27:00,
2015-07-05 02:32:00,66.4,64.2,29.14,NNE,30,0.0,0.0,93,0.00,,,0.00,0.0,meteohub,2015-07-05 06:32:00,
2015-07-05 02:37:00,66.4,64.2,29.14,NNE,30,0.0,0.0,93,0.00,,,0.00,0.0,meteohub,2015-07-05 06:37:00,
2015-07-05 02:42:00,66.4,64.2,29.14,NNE,30,0.0,0.0,93,0.00,,,0.00,0.0,meteohub,2015-07-05 06:42:00,
2015-07-05 02:47:00,66.4,64.2,29.14,NNE,30,0.0,0.0,93,0.00,,,0.00,0.0,meteohub,2015-07-05 06:47:00,
2015-07-05 02:52:00,66.4,64.2,29.14,NNE,30,0.0,0.0,93,0.00,,,0.00,0.0,meteohub,2015-07-05 06:52:00,
2015-07-05 02:57:00,66.4,64.2,29.15,NNE,30,0.0,0.0,93,0.00,,,0.00,0.0,meteohub,2015-07-05 06:57:00,
2015-07-05 03:02:00,66.4,64.2,29.14,NNE,30,0.0,0.0,93,0.00,,,0.00,0.0,meteohub,2015-07-05 07:02:00,
2015-07-05 03:07:00,66.4,64.2,29.15,NNE,30,0.0,0.0,93,0.00,,,0.00,0.0,meteohub,2015-07-05 07:07:00,
2015-07-05 03:12:00,66.4,64.6,29.15,NNE,30,0.0,0.0,94,0.00,,,0.00,0.0,meteohub,2015-07-05 07:12:00,
2015-07-05 03:17:00,66.4,64.6,29.15,NNE,30,0.0,0.0,94,0.00,,,0.00,0.0,meteohub,2015-07-05 07:17:00,
2015-07-05 03:22:00,66.2,64.4,29.15,NNE,30,0.0,0.0,94,0.00,,,0.00,0.0,meteohub,2015-07-05 07:22:00,
2015-07-05 03:26:00,66.2,64.4,29.15,NNE,30,0.0,0.0,94,0.00,,,0.00,0.0,meteohub,2015-07-05 07:26:00,
2015-07-05 03:32:00,66.2,64.4,29.15,NNE,30,0.0,0.0,94,0.00,,,0.00,0.0,meteohub,2015-07-05 07:32:00,
2015-07-05 03:37:00,66.2,64.4,29.15,NNE,30,0.0,0.0,94,0.00,,,0.00,0.0,meteohub,2015-07-05 07:37:00,
2015-07-05 03:42:00,66.0,64.2,29.15,NNE,30,0.0,0.0,94,0.00,,,0.00,0.0,meteohub,2015-07-05 07:42:00,
2015-07-05 03:46:00,66.0,64.2,29.15,NNE,30,0.0,0.0,94,0.00,,,0.00,0.0,meteohub,2015-07-05 07:46:00,
2015-07-05 03:52:00,66.0,64.2,29.15,NNE,30,0.0,0.0,94,0.00,,,0.00,0.0,meteohub,2015-07-05 07:52:00,
2015-07-05 03:57:00,66.0,64.2,29.15,NNE,30,0.0,0.0,94,0.00,,,0.00,0.0,meteohub,2015-07-05 07:57:00,
2015-07-05 04:02:00,66.0,64.2,29.15,NNE,30,0.0,0.0,94,0.00,,,0.00,0.0,meteohub,2015-07-05 08:02:00,
2015-07-05 04:06:00,66.0,64.2,29.15,NNE,30,0.0,0.0,94,0.00,,,0.00,0.0,meteohub,2015-07-05 08:06:00,
2015-07-05 04:11:00,66.0,64.2,29.16,NNE,30,0.0,0.0,94,0.00,,,0.00,0.0,meteohub,2015-07-05 08:11:00,
2015-07-05 04:17:00,65.8,64.0,29.16,NNE,30,0.0,0.0,94,0.00,,,0.00,0.0,meteohub,2015-07-05 08:17:00,
2015-07-05 04:22:00,65.8,64.0,29.16,NNE,30,0.0,0.0,94,0.00,,,0.00,0.0,meteohub,2015-07-05 08:22:00,
2015-07-05 04:27:00,65.8,64.0,29.16,NNE,30,0.0,0.0,94,0.00,,,0.00,0.0,meteohub,2015-07-05 08:27:00,
2015-07-05 04:32:00,65.8,64.0,29.16,NNE,30,0.0,0.0,94,0.00,,,0.00,0.0,meteohub,2015-07-05 08:32:00,
2015-07-05 04:37:00,65.8,64.0,29.16,NNE,30,0.0,0.0,94,0.00,,,0.00,0.0,meteohub,2015-07-05 08:37:00,
2015-07-05 04:42:00,65.7,63.9,29.16,NNE,30,0.0,0.0,94,0.00,,,0.00,0.0,meteohub,2015-07-05 08:42:00,
2015-07-05 04:47:00,65.7,63.9,29.16,NNE,30,0.0,0.0,94,0.00,,,0.00,0.0,meteohub,2015-07-05 08:47:00,
2015-07-05 04:52:00,65.7,63.9,29.16,NNE,30,0.0,0.0,94,0.00,,,0.00,0.0,meteohub,2015-07-05 08:52:00,
2015-07-05 04:57:00,65.7,63.9,29.16,NNE,30,0.0,0.0,94,0.00,,,0.00,0.0,meteohub,2015-07-05 08:57:00,
2015-07-05 05:02:00,65.5,63.7,29.16,NNE,30,0.0,0.0,94,0.00,,,0.00,0.0,meteohub,2015-07-05 09:02:00,
2015-07-05 05:07:00,65.5,63.7,29.16,NNE,30,0.0,0.0,94,0.00,,,0.00,0.0,meteohub,2015-07-05 09:07:00,
2015-07-05 05:12:00,65.1,63.0,29.16,NNE,30,0.0,0.0,93,0.00,,,0.00,0.0,meteohub,2015-07-05 09:12:00,
2015-07-05 05:17:00,64.9,62.8,29.16,NNE,30,0.0,0.0,93,0.00,,,0.00,0.0,meteohub,2015-07-05 09:17:00,
2015-07-05 05:22:00,64.9,62.8,29.16,NNE,30,0.0,0.0,93,0.00,,,0.00,0.0,meteohub,2015-07-05 09:22:00,
2015-07-05 05:27:00,64.8,62.6,29.16,NNE,30,0.0,0.0,93,0.00,,,0.00,0.0,meteohub,2015-07-05 09:27:00,
2015-07-05 05:32:00,64.4,62.4,29.17,NNE,30,0.0,0.0,93,0.00,,,0.00,0.0,meteohub,2015-07-05 09:32:00,
2015-07-05 05:37:00,64.2,61.9,29.17,NNE,30,0.0,0.0,92,0.00,,,0.00,0.0,meteohub,2015-07-05 09:37:00,
2015-07-05 05:42:00,64.0,62.1,29.17,NNE,30,0.0,0.0,93,0.00,,,0.00,0.0,meteohub,2015-07-05 09:42:00,
2015-07-05 05:47:00,63.9,61.9,29.17,NNE,30,0.0,0.0,93,0.00,,,0.00,5.0,meteohub,2015-07-05 09:47:00,
2015-07-05 05:52:00,63.7,61.7,29.17,NNE,30,0.0,0.0,93,0.00,,,0.00,11.0,meteohub,2015-07-05 09:52:00,
2015-07-05 05:57:00,63.7,61.3,29.17,NNE,30,0.0,0.0,92,0.00,,,0.00,14.0,meteohub,2015-07-05 09:57:00,
2015-07-05 06:02:00,63.3,61.3,29.17,East,93,0.0,0.0,93,0.00,,,0.00,19.0,meteohub,2015-07-05 10:02:00,
2015-07-05 06:07:00,63.1,61.2,29.17,East,93,0.0,0.0,93,0.00,,,0.00,21.0,meteohub,2015-07-05 10:07:00,
2015-07-05 06:12:00,63.1,61.2,29.18,East,93,0.0,0.0,93,0.00,,,0.00,25.0,meteohub,2015-07-05 10:12:00,
2015-07-05 06:17:00,63.0,61.0,29.18,East,93,0.0,0.0,93,0.00,,,0.00,33.0,meteohub,2015-07-05 10:17:00,
2015-07-05 06:22:00,63.0,61.0,29.18,East,94,0.0,0.0,93,0.00,,,0.00,39.0,meteohub,2015-07-05 10:22:00,
2015-07-05 06:27:00,62.8,60.8,29.18,East,94,0.0,0.0,93,0.00,,,0.00,42.0,meteohub,2015-07-05 10:27:00,
2015-07-05 06:32:00,62.8,60.8,29.18,East,94,0.0,0.0,93,0.00,,,0.00,47.0,meteohub,2015-07-05 10:32:00,
2015-07-05 06:37:00,62.8,61.0,29.18,East,94,0.0,0.0,94,0.00,,,0.00,53.0,meteohub,2015-07-05 10:37:00,
2015-07-05 06:42:00,62.8,61.0,29.18,East,94,0.0,0.0,94,0.00,,,0.00,62.0,meteohub,2015-07-05 10:42:00,